Time;durP1;ratioP1;P1;durP2;ratioP2;P2;SDS_P1;SDS_P2;PMS_P1;PMS_P2;Temp;Humidity;BMP_temperature;BMP_pressure;BME280_temperature;BME280_humidity;BME280_pressure;Samples;Min_cycle;Max_cycle;Signal;HPM_P1;HPM_P2
2022/09/03 00:01:27;;;;;;;2.43;0.90;;;;;;;16.96;100.00;101451.72;5029441;28;20749;-73
2022/09/03 00:04:39;;;;;;;1.50;1.10;;;;;;;17.40;100.00;101481.19;5049827;28;20418;-73
2022/09/03 00:07:19;;;;;;;1.70;1.00;;;;;;;17.62;100.00;101527.63;5037147;28;20560;-73
2022/09/03 00:09:58;;;;;;;2.80;1.03;;;;;;;17.37;100.00;101508.75;5052236;28;20492;-73
2022/09/03 00:12:28;;;;;;;1.47;0.90;;;;;;;17.35;100.00;101524.41;5033621;28;20834;-73
2022/09/03 00:15:03;;;;;;;1.53;1.00;;;;;;;17.48;100.00;101517.19;5050708;28;20426;-73
2022/09/03 00:17:33;;;;;;;4.20;0.93;;;;;;;17.44;100.00;101532.25;5052021;28;20454;-73
2022/09/03 00:20:06;;;;;;;2.10;0.83;;;;;;;16.82;100.00;101465.41;5052772;28;20514;-73
2022/09/03 00:22:40;;;;;;;3.07;1.20;;;;;;;17.12;100.00;101505.28;5041007;28;20442;-73
2022/09/03 00:25:11;;;;;;;2.00;1.00;;;;;;;17.29;100.00;101528.03;5051595;28;20457;-73
2022/09/03 00:27:39;;;;;;;1.00;0.90;;;;;;;16.98;100.00;101480.25;5051368;28;20501;-73
2022/09/03 00:30:12;;;;;;;4.60;1.20;;;;;;;16.59;100.00;101417.28;5052131;28;20430;-73
2022/09/03 00:33:05;;;;;;;2.27;1.10;;;;;;;17.17;100.00;101508.16;5048682;28;20818;-73
2022/09/03 00:35:36;;;;;;;1.00;0.90;;;;;;;17.13;100.00;101534.91;5051122;28;20418;-73
2022/09/03 00:38:02;;;;;;;1.10;1.00;;;;;;;16.77;100.00;101467.13;5050262;28;20453;-73
2022/09/03 00:40:44;;;;;;;2.10;1.00;;;;;;;16.66;100.00;101437.00;5050984;28;20445;-73
2022/09/03 00:43:31;;;;;;;1.30;1.10;;;;;;;17.25;100.00;101517.88;5033708;28;20190;-73
2022/09/03 00:46:06;;;;;;;1.83;0.80;;;;;;;17.13;100.00;101525.94;5050774;28;20440;-73
2022/09/03 00:49:10;;;;;;;0.97;0.80;;;;;;;17.14;100.00;101516.75;5051373;28;20472;-73
2022/09/03 00:51:57;;;;;;;2.10;0.80;;;;;;;17.05;100.00;101518.94;5048613;28;20943;-73
2022/09/03 00:54:28;;;;;;;3.30;0.97;;;;;;;17.14;100.00;101522.16;5051248;28;20493;-73
2022/09/03 00:57:34;;;;;;;0.80;0.80;;;;;;;17.24;100.00;101519.78;5051905;28;20413;-73
2022/09/03 01:00:06;;;;;;;0.80;0.80;;;;;;;17.01;100.00;101517.72;5034822;28;20421;-73
2022/09/03 01:02:55;;;;;;;2.40;1.10;;;;;;;16.69;100.00;101465.50;5049145;28;20546;-73
2022/09/03 01:05:27;;;;;;;3.13;0.90;;;;;;;16.99;100.00;101476.47;5034741;28;20422;-73
2022/09/03 01:08:20;;;;;;;2.13;1.37;;;;;;;16.86;100.00;101466.59;5049778;28;20966;-73
2022/09/03 01:10:57;;;;;;;1.20;1.07;;;;;;;17.01;100.00;101517.72;5049098;28;20863;-73
2022/09/03 01:13:51;;;;;;;1.73;1.10;;;;;;;16.70;100.00;101478.00;5051282;28;20472;-73
2022/09/03 01:16:57;;;;;;;1.63;1.10;;;;;;;17.02;100.00;101526.69;5007483;28;20517;-73
2022/09/03 01:20:07;;;;;;;1.00;0.90;;;;;;;16.98;100.00;101525.47;5043925;28;20449;-73
2022/09/03 01:23:00;;;;;;;1.33;1.10;;;;;;;17.06;100.00;101523.28;4947497;28;20443;-73
2022/09/03 01:26:00;;;;;;;1.63;1.03;;;;;;;16.98;100.00;101528.16;5046394;28;20538;-73
2022/09/03 01:28:53;;;;;;;1.23;1.00;;;;;;;16.30;100.00;101454.00;5050949;28;20454;-73
2022/09/03 01:31:37;;;;;;;2.20;1.20;;;;;;;16.90;100.00;101530.13;5025538;28;20422;-73
2022/09/03 01:34:18;;;;;;;1.93;1.13;;;;;;;16.62;100.00;101484.53;5051551;28;20437;-73
2022/09/03 01:36:47;;;;;;;1.47;1.00;;;;;;;16.87;100.00;101529.75;5021961;28;20496;-73
2022/09/03 01:39:27;;;;;;;2.40;1.10;;;;;;;16.25;100.00;101433.00;5050806;28;20438;-73
2022/09/03 01:42:42;;;;;;;2.43;0.97;;;;;;;16.88;100.00;101518.69;5049162;28;20406;-73
2022/09/03 01:45:22;;;;;;;2.10;1.10;;;;;;;16.30;100.00;101429.63;5019813;28;20922;-73
2022/09/03 01:48:11;;;;;;;5.20;1.10;;;;;;;16.77;100.00;101526.72;5048463;28;20490;-73
2022/09/03 01:51:18;;;;;;;2.07;1.20;;;;;;;16.73;100.00;101529.84;5049305;28;20457;-72
2022/09/03 01:54:09;;;;;;;1.67;0.80;;;;;;;16.67;100.00;101519.09;4959289;28;20922;-73
2022/09/03 01:56:49;;;;;;;2.33;1.07;;;;;;;16.83;100.00;101520.41;5030618;28;20810;-73
2022/09/03 01:59:31;;;;;;;1.37;0.90;;;;;;;15.57;100.00;101366.09;5050509;28;20497;-73
2022/09/03 02:02:20;;;;;;;1.90;1.27;;;;;;;16.45;100.00;101499.69;5032825;28;20426;-73
2022/09/03 02:05:06;;;;;;;1.40;1.30;;;;;;;16.67;100.00;101519.09;5051079;28;20423;-73
2022/09/03 02:07:38;;;;;;;1.50;1.00;;;;;;;16.53;100.00;101525.66;5047138;28;20473;-73
2022/09/03 02:10:08;;;;;;;2.00;1.20;;;;;;;16.63;100.00;101526.81;5049174;28;20502;-73
2022/09/03 02:12:37;;;;;;;1.40;1.00;;;;;;;16.45;100.00;101476.13;5023839;28;20430;-73
2022/09/03 02:15:09;;;;;;;1.00;0.90;;;;;;;16.58;100.00;101521.25;5049497;28;20420;-73
2022/09/03 02:17:35;;;;;;;1.13;0.90;;;;;;;16.00;100.00;101451.97;5048742;28;20442;-73
2022/09/03 02:20:10;;;;;;;3.20;1.00;;;;;;;16.56;100.00;101517.09;5050890;28;20418;-73
2022/09/03 02:22:37;;;;;;;1.70;1.00;;;;;;;15.47;100.00;101381.97;5047948;28;20449;-73
2022/09/03 02:25:03;;;;;;;1.43;0.90;;;;;;;16.50;100.00;101516.94;5049943;28;20793;-73
2022/09/03 02:27:30;;;;;;;1.20;1.10;;;;;;;16.23;100.00;101510.09;5047996;28;20494;-73
2022/09/03 02:29:57;;;;;;;1.10;0.90;;;;;;;15.85;100.00;101432.50;5049160;28;20528;-73
2022/09/03 02:32:22;;;;;;;1.53;0.90;;;;;;;16.58;100.00;101532.06;5049618;28;20806;-71
2022/09/03 02:34:48;;;;;;;0.97;0.80;;;;;;;16.41;100.00;101539.09;5050848;28;20517;-73
2022/09/03 02:37:15;;;;;;;0.70;0.70;;;;;;;16.35;100.00;101524.56;5045051;28;20683;-73
2022/09/03 02:39:41;;;;;;;1.83;1.33;;;;;;;16.24;100.00;101509.03;5049612;28;20664;-73
2022/09/03 02:42:11;;;;;;;1.43;0.90;;;;;;;15.71;100.00;101412.03;5049848;28;21006;-72
2022/09/03 02:44:43;;;;;;;1.00;0.90;;;;;;;15.91;100.00;101464.09;5031125;28;20250;-72
2022/09/03 02:47:09;;;;;;;2.73;1.20;;;;;;;16.30;100.00;101542.50;5047523;28;20539;-73
2022/09/03 02:49:34;;;;;;;2.40;1.20;;;;;;;15.73;100.00;101439.66;5032569;28;20544;-73
2022/09/03 02:52:08;;;;;;;2.80;0.90;;;;;;;15.87;100.00;101460.16;5046215;28;20583;-73
2022/09/03 02:54:38;;;;;;;1.03;0.93;;;;;;;15.75;100.00;101465.44;5048627;28;20325;-73
2022/09/03 02:57:08;;;;;;;1.27;1.10;;;;;;;16.15;100.00;101526.59;5044877;28;20536;-73
2022/09/03 02:59:35;;;;;;;0.70;0.70;;;;;;;15.85;100.00;101494.72;5050056;28;20487;-73
2022/09/03 03:02:01;;;;;;;2.00;0.77;;;;;;;16.26;100.00;101526.72;5047296;28;20442;-73
2022/09/03 03:04:26;;;;;;;2.33;1.03;;;;;;;15.34;100.00;101387.47;5049325;28;20926;-73
2022/09/03 03:06:52;;;;;;;1.13;0.97;;;;;;;16.00;100.00;101527.72;5026434;28;20462;-73
2022/09/03 03:09:17;;;;;;;1.07;1.00;;;;;;;15.73;100.00;101469.41;5048545;28;20189;-73
2022/09/03 03:11:43;;;;;;;1.20;0.93;;;;;;;15.36;100.00;101428.59;5029658;28;20191;-73
2022/09/03 03:14:09;;;;;;;1.03;0.93;;;;;;;15.94;100.00;101511.50;5048274;28;20644;-73
2022/09/03 03:16:35;;;;;;;1.43;1.10;;;;;;;16.24;100.00;101536.09;5049263;28;20421;-73
2022/09/03 03:19:01;;;;;;;4.13;1.20;;;;;;;15.37;100.00;101433.00;5047843;28;20211;-73
2022/09/03 03:21:26;;;;;;;1.30;1.20;;;;;;;15.96;100.00;101540.00;5048199;28;20422;-73
2022/09/03 03:23:52;;;;;;;1.43;1.00;;;;;;;16.12;100.00;101537.84;5047637;28;20221;-73
2022/09/03 03:26:19;;;;;;;1.80;1.03;;;;;;;16.00;100.00;101538.53;5025493;28;20207;-73
2022/09/03 03:28:47;;;;;;;0.83;0.83;;;;;;;16.01;100.00;101488.78;5048968;28;20226;-73
2022/09/03 03:31:22;;;;;;;1.87;1.00;;;;;;;15.98;100.00;101542.50;5047504;28;20445;-73
2022/09/03 03:33:54;;;;;;;1.23;0.93;;;;;;;16.09;100.00;101538.28;5050465;28;20421;-73
2022/09/03 03:36:22;;;;;;;1.20;1.10;;;;;;;15.98;100.00;101539.81;5047972;28;20929;-73
2022/09/03 03:38:47;;;;;;;0.90;0.90;;;;;;;15.90;100.00;101532.75;5047238;28;20465;-73
2022/09/03 03:41:20;;;;;;;2.00;1.07;;;;;;;15.26;100.00;101450.69;5030023;28;20992;-73
2022/09/03 03:43:46;;;;;;;2.40;1.10;;;;;;;15.90;100.00;101538.19;5046677;28;20195;-72
2022/09/03 03:46:13;;;;;;;2.83;1.20;;;;;;;15.97;100.00;101554.41;5048799;28;20433;-73
2022/09/03 03:48:40;;;;;;;1.30;1.20;;;;;;;16.04;100.00;101534.34;5045840;28;20507;-73
2022/09/03 03:51:07;;;;;;;1.57;1.10;;;;;;;16.01;100.00;101536.66;5048888;28;20421;-73
2022/09/03 03:53:34;;;;;;;1.50;0.97;;;;;;;15.93;100.00;101537.75;5029824;28;20448;-72
2022/09/03 03:56:03;;;;;;;1.10;0.83;;;;;;;15.51;100.00;101475.13;5049244;28;20504;-73
2022/09/03 03:58:30;;;;;;;1.07;0.90;;;;;;;15.82;100.00;101542.00;5048534;28;20480;-73
2022/09/03 04:01:03;;;;;;;1.23;0.90;;;;;;;15.59;100.00;101517.28;5046380;28;20981;-73
2022/09/03 04:03:29;;;;;;;1.23;1.10;;;;;;;16.04;100.00;101547.06;5047591;28;20927;-73
2022/09/03 04:05:56;;;;;;;1.43;1.10;;;;;;;15.95;100.00;101535.66;5046964;28;20512;-73
2022/09/03 04:08:22;;;;;;;1.50;0.97;;;;;;;15.23;100.00;101415.19;5046502;28;20254;-73
2022/09/03 04:10:47;;;;;;;1.43;1.10;;;;;;;15.54;100.00;101463.06;5048609;28;20485;-72
2022/09/03 04:13:13;;;;;;;1.77;1.50;;;;;;;15.24;100.00;101435.75;5029816;28;20427;-73
2022/09/03 04:15:39;;;;;;;2.00;1.23;;;;;;;16.00;100.00;101538.53;5022545;28;20281;-73
2022/09/03 04:18:05;;;;;;;1.00;0.90;;;;;;;15.52;100.00;101422.69;5047966;28;20886;-72
2022/09/03 04:20:30;;;;;;;3.03;0.90;;;;;;;15.29;100.00;101414.31;5030217;28;20949;-73
2022/09/03 04:23:00;;;;;;;2.37;1.03;;;;;;;15.62;100.00;101432.22;5044962;28;20187;-73
2022/09/03 04:25:25;;;;;;;1.10;1.00;;;;;;;15.84;100.00;101500.34;5048074;28;20263;-73
2022/09/03 04:27:51;;;;;;;1.03;0.80;;;;;;;15.95;100.00;101534.84;5048111;28;20552;-72
2022/09/03 04:30:17;;;;;;;1.37;1.10;;;;;;;16.08;100.00;101533.91;5046553;28;20747;-73
2022/09/03 04:32:55;;;;;;;1.67;1.10;;;;;;;15.98;100.00;101532.50;5048220;28;20437;-73
2022/09/03 04:35:25;;;;;;;2.77;1.37;;;;;;;16.05;100.00;101500.00;5031299;28;20183;-73
2022/09/03 04:37:50;;;;;;;1.53;1.10;;;;;;;16.16;100.00;101537.19;5045897;28;20456;-73
2022/09/03 04:40:16;;;;;;;0.90;0.90;;;;;;;15.18;100.00;101401.47;5048465;28;20430;-73
2022/09/03 04:42:42;;;;;;;2.40;1.13;;;;;;;15.33;100.00;101427.19;5046029;28;20191;-73
2022/09/03 04:45:08;;;;;;;1.37;1.00;;;;;;;16.02;100.00;101525.59;5048766;28;20194;-73
2022/09/03 04:47:35;;;;;;;1.70;1.10;;;;;;;16.13;100.00;101531.38;5045862;28;20222;-73
2022/09/03 04:50:01;;;;;;;1.50;1.40;;;;;;;14.87;100.00;101393.09;5049508;28;20388;-73
2022/09/03 04:52:28;;;;;;;1.20;1.10;;;;;;;15.24;100.00;101419.53;5049848;28;20437;-73
2022/09/03 04:54:54;;;;;;;2.30;1.17;;;;;;;15.96;100.00;101515.66;5035085;28;20603;-73
2022/09/03 04:57:19;;;;;;;1.27;1.00;;;;;;;16.05;100.00;101521.63;5052887;28;20434;-73
2022/09/03 04:59:44;;;;;;;1.20;1.10;;;;;;;16.02;100.00;101531.00;5049663;28;20183;-73
2022/09/03 05:02:10;;;;;;;4.03;1.10;;;;;;;16.00;100.00;101526.91;5032425;28;20610;-73
2022/09/03 05:04:35;;;;;;;1.87;1.00;;;;;;;15.69;100.00;101460.91;5050226;28;20395;-73
2022/09/03 05:07:01;;;;;;;1.40;1.13;;;;;;;15.57;100.00;101446.41;5050875;28;20258;-73
2022/09/03 05:09:26;;;;;;;1.53;0.90;;;;;;;15.52;100.00;101449.75;5050278;28;20271;-73
2022/09/03 05:11:51;;;;;;;4.10;1.20;;;;;;;14.81;100.00;101345.34;5051716;28;20186;-73
2022/09/03 05:14:17;;;;;;;1.20;1.10;;;;;;;15.03;100.00;101382.84;5033832;28;20184;-73
2022/09/03 05:16:42;;;;;;;1.40;1.20;;;;;;;15.11;100.00;101418.56;5051771;28;20253;-73
2022/09/03 05:19:09;;;;;;;2.37;1.50;;;;;;;15.20;100.00;101429.13;5050091;28;20725;-72
2022/09/03 05:21:35;;;;;;;1.33;1.10;;;;;;;16.00;100.00;101527.72;5047689;28;20188;-73
2022/09/03 05:24:01;;;;;;;2.43;1.40;;;;;;;15.83;100.00;101532.00;5051024;28;20418;-73
2022/09/03 05:26:30;;;;;;;1.67;1.27;;;;;;;15.92;100.00;101533.38;5051597;28;20989;-72
2022/09/03 05:29:00;;;;;;;1.60;1.20;;;;;;;16.01;100.00;101529.38;5049897;28;20515;-73
2022/09/03 05:31:27;;;;;;;1.63;1.10;;;;;;;15.94;100.00;101522.34;5047294;28;20518;-73
2022/09/03 05:33:57;;;;;;;1.00;1.00;;;;;;;15.86;100.00;101515.31;5050284;28;20473;-73
2022/09/03 05:36:24;;;;;;;3.17;1.20;;;;;;;15.94;100.00;101534.00;5025603;28;20422;-73
2022/09/03 05:38:50;;;;;;;1.97;1.00;;;;;;;15.98;100.00;101531.69;5029900;28;20461;-73
2022/09/03 05:41:17;;;;;;;1.40;1.20;;;;;;;15.63;100.00;101509.59;5050246;28;20509;-73
2022/09/03 05:43:42;;;;;;;1.43;1.13;;;;;;;15.96;100.00;101531.88;5047789;28;20529;-73
2022/09/03 05:46:11;;;;;;;2.13;1.13;;;;;;;14.81;100.00;101385.00;5050389;28;20722;-73
2022/09/03 05:48:39;;;;;;;1.17;0.93;;;;;;;15.79;100.00;101528.03;5049735;28;20273;-73
2022/09/03 05:51:09;;;;;;;1.50;1.00;;;;;;;15.60;100.00;101505.44;5051531;28;20422;-74
2022/09/03 05:53:38;;;;;;;1.53;1.27;;;;;;;15.79;100.00;101515.38;5047711;28;20449;-73
2022/09/03 05:56:06;;;;;;;2.13;1.00;;;;;;;15.12;100.00;101404.00;5032588;28;20430;-73
2022/09/03 05:58:33;;;;;;;1.10;1.00;;;;;;;15.27;100.00;101416.41;5049659;28;20540;-73
2022/09/03 06:00:59;;;;;;;1.53;1.17;;;;;;;15.21;100.00;101428.06;5031320;28;20418;-73
2022/09/03 06:03:25;;;;;;;1.43;1.30;;;;;;;15.81;100.00;101501.63;5033076;28;20806;-73
2022/09/03 06:05:53;;;;;;;1.20;1.10;;;;;;;15.93;100.00;101510.69;5050358;28;20180;-73
2022/09/03 06:08:19;;;;;;;1.13;1.00;;;;;;;15.86;100.00;101512.63;5049091;28;20466;-73
2022/09/03 06:10:44;;;;;;;1.50;1.13;;;;;;;15.88;100.00;101515.94;5047892;28;20957;-73
2022/09/03 06:13:10;;;;;;;1.33;1.23;;;;;;;15.64;100.00;101460.69;5049400;28;20422;-73
2022/09/03 06:15:36;;;;;;;2.30;0.93;;;;;;;15.88;100.00;101488.88;5049473;28;20184;-73
2022/09/03 06:18:02;;;;;;;2.40;0.90;;;;;;;15.93;100.00;101526.09;5047426;28;20408;-72
2022/09/03 06:20:27;;;;;;;2.60;1.07;;;;;;;14.73;100.00;101321.28;5050830;28;20505;-72
2022/09/03 06:22:56;;;;;;;1.47;0.90;;;;;;;15.81;100.00;101523.25;5026390;28;20183;-73
2022/09/03 06:25:21;;;;;;;2.20;1.33;;;;;;;15.87;100.00;101497.22;5043131;28;20184;-73
2022/09/03 06:27:48;;;;;;;1.80;0.90;;;;;;;16.11;100.00;101514.53;5049766;28;20496;-73
2022/09/03 06:30:14;;;;;;;1.03;0.93;;;;;;;15.71;100.00;101452.59;5049099;28;20180;-73
2022/09/03 06:32:46;;;;;;;2.50;1.17;;;;;;;15.91;100.00;101465.97;5048828;28;20877;-73
2022/09/03 06:35:12;;;;;;;2.90;1.40;;;;;;;16.13;100.00;101512.44;5050973;28;20422;-73
2022/09/03 06:37:43;;;;;;;1.67;1.10;;;;;;;16.12;100.00;101492.66;5048108;28;20511;-73
2022/09/03 06:40:12;;;;;;;1.37;1.20;;;;;;;16.15;100.00;101519.28;5049240;28;20455;-73
2022/09/03 06:42:40;;;;;;;1.87;1.20;;;;;;;16.09;100.00;101486.88;5031600;28;20478;-73
2022/09/03 06:45:09;;;;;;;1.20;1.10;;;;;;;15.89;100.00;101439.13;5047182;28;21052;-73
2022/09/03 06:47:35;;;;;;;3.43;1.10;;;;;;;15.61;100.00;101425.97;5049811;28;20535;-73
2022/09/03 06:50:01;;;;;;;1.40;1.10;;;;;;;16.34;100.00;101495.81;5049528;28;20464;-73
2022/09/03 06:52:27;;;;;;;4.30;1.27;;;;;;;16.49;100.00;101484.66;5045580;28;20184;-74
2022/09/03 06:54:52;;;;;;;1.50;1.10;;;;;;;16.53;100.00;101488.56;5045255;28;20446;-73
2022/09/03 06:57:18;;;;;;;3.00;1.03;;;;;;;16.65;100.00;101504.94;5045861;28;20504;-73
2022/09/03 06:59:44;;;;;;;5.33;1.10;;;;;;;16.07;100.00;101435.66;5049130;28;20187;-73
2022/09/03 07:02:10;;;;;;;0.90;0.90;;;;;;;16.41;100.00;101471.41;5045777;28;20526;-73
2022/09/03 07:04:35;;;;;;;4.60;1.47;;;;;;;16.69;100.00;101508.84;5043981;28;20183;-73
2022/09/03 07:07:01;;;;;;;1.83;1.20;;;;;;;16.75;100.00;101520.66;5039035;28;20612;-73
2022/09/03 07:09:27;;;;;;;1.57;1.10;;;;;;;16.17;100.00;101419.78;5047102;28;20184;-73
2022/09/03 07:11:53;;;;;;;1.30;1.20;;;;;;;16.93;100.00;101508.00;5048368;28;20184;-73
2022/09/03 07:14:19;;;;;;;2.43;1.13;;;;;;;16.78;100.00;101488.59;5050820;28;20560;-73
2022/09/03 07:16:46;;;;;;;0.90;0.80;;;;;;;16.91;100.00;101483.00;5045526;28;20178;-73
2022/09/03 07:19:13;;;;;;;1.20;1.10;;;;;;;17.04;100.00;101503.72;5048502;28;20428;-73
2022/09/03 07:21:40;;;;;;;2.53;1.20;;;;;;;16.41;100.00;101428.91;5048133;28;20509;-73
2022/09/03 07:24:06;;;;;;;1.77;1.20;;;;;;;17.04;100.00;101505.59;5046479;28;20438;-73
2022/09/03 07:26:38;;;;;;;1.20;1.10;;;;;;;16.89;100.00;101471.59;5031539;28;20897;-73
2022/09/03 07:29:06;;;;;;;2.13;1.20;;;;;;;17.05;100.00;101499.97;5049313;28;20421;-73
2022/09/03 07:31:34;;;;;;;1.77;1.10;;;;;;;17.22;100.00;101508.31;5049152;28;20418;-73
2022/09/03 07:34:04;;;;;;;2.20;1.10;;;;;;;16.96;100.00;101482.34;5048935;28;20820;-73
2022/09/03 07:36:34;;;;;;;1.67;1.20;;;;;;;17.28;100.00;101509.28;5045922;28;20969;-73
2022/09/03 07:38:59;;;;;;;1.43;1.20;;;;;;;17.14;100.00;101474.19;5045468;28;20512;-73
2022/09/03 07:41:26;;;;;;;1.23;1.00;;;;;;;16.55;100.00;101407.09;5047980;28;20430;-73
2022/09/03 07:43:52;;;;;;;1.73;0.90;;;;;;;17.31;100.00;101504.25;5047369;28;20586;-73
2022/09/03 07:46:23;;;;;;;1.80;1.30;;;;;;;16.85;100.00;101405.34;5037587;28;20874;-73
2022/09/03 07:48:54;;;;;;;1.53;1.23;;;;;;;16.42;100.00;101353.94;5047477;28;20959;-73
2022/09/03 07:51:25;;;;;;;2.90;1.10;;;;;;;17.39;100.00;101500.41;5024574;28;20800;-73
2022/09/03 07:53:52;;;;;;;1.53;1.23;;;;;;;16.85;100.00;101399.09;5047258;28;20488;-73
2022/09/03 07:56:17;;;;;;;1.33;1.00;;;;;;;17.51;100.00;101489.59;5047488;28;20426;-73
2022/09/03 07:58:43;;;;;;;1.20;1.10;;;;;;;17.24;100.00;101434.88;5045214;28;20476;-73
2022/09/03 08:01:15;;;;;;;0.70;0.67;;;;;;;17.59;100.00;101467.59;5048637;28;20545;-73
2022/09/03 08:03:45;;;;;;;2.07;1.20;;;;;;;17.08;100.00;101412.78;5031457;28;20180;-73
2022/09/03 08:06:12;;;;;;;1.53;1.20;;;;;;;16.98;100.00;101365.56;5048910;28;20446;-73
2022/09/03 08:08:39;;;;;;;1.23;1.10;;;;;;;17.84;100.00;101484.56;5046035;28;20487;-73
2022/09/03 08:11:09;;;;;;;1.60;1.03;;;;;;;18.01;100.00;101495.56;5044915;28;20450;-73
2022/09/03 08:13:39;;;;;;;2.50;1.17;;;;;;;18.00;100.00;101502.06;5047512;28;20503;-73
2022/09/03 08:16:06;;;;;;;1.77;1.10;;;;;;;17.74;100.00;101449.00;5047383;28;20422;-73
2022/09/03 08:18:36;;;;;;;1.50;1.40;;;;;;;17.55;100.00;101428.41;5048684;28;20460;-73
2022/09/03 08:21:03;;;;;;;1.77;1.23;;;;;;;18.13;100.00;101502.94;5046619;28;20446;-73
2022/09/03 08:23:28;;;;;;;1.90;0.97;;;;;;;18.13;100.00;101503.75;5045610;28;20438;-74
2022/09/03 08:26:01;;;;;;;1.73;1.00;;;;;;;18.28;100.00;101509.59;5047283;28;20804;-73
2022/09/03 08:28:27;;;;;;;2.47;0.73;;;;;;;17.74;100.00;101408.31;5051448;28;20223;-73
2022/09/03 08:30:53;;;;;;;1.97;1.27;;;;;;;18.38;100.00;101500.84;5052144;28;20448;-73
2022/09/03 08:33:36;;;;;;;1.13;0.80;;;;;;;18.25;100.00;101495.63;5035213;28;20441;-73
2022/09/03 08:36:06;;;;;;;1.07;0.97;;;;;;;18.38;100.00;101497.31;5051809;28;20849;-73
2022/09/03 08:38:33;;;;;;;2.33;1.10;;;;;;;18.32;100.00;101480.06;5046960;28;20465;-73
2022/09/03 08:41:07;;;;;;;1.20;1.00;;;;;;;18.47;100.00;101485.84;5033287;28;20813;-73
2022/09/03 08:43:52;;;;;;;1.73;1.00;;;;;;;18.65;100.00;101495.78;5051679;28;20797;-73
2022/09/03 08:46:20;;;;;;;1.93;1.10;;;;;;;18.72;100.00;101501.94;5051772;28;20430;-73
2022/09/03 08:48:47;;;;;;;1.33;1.07;;;;;;;18.48;100.00;101473.09;5052208;28;20445;-73
2022/09/03 08:51:15;;;;;;;1.83;1.10;;;;;;;18.88;100.00;101492.25;5049149;28;20438;-73
2022/09/03 08:53:48;;;;;;;1.47;1.00;;;;;;;18.80;100.00;101481.72;5050260;28;20526;-73
2022/09/03 08:56:23;;;;;;;1.70;0.87;;;;;;;18.95;100.00;101500.28;5050495;28;20433;-74
2022/09/03 08:58:49;;;;;;;2.00;1.10;;;;;;;18.97;100.00;101484.56;5051480;28;20441;-73
2022/09/03 09:01:23;;;;;;;1.00;0.90;;;;;;;18.82;100.00;101452.44;5051048;28;20445;-73
2022/09/03 09:04:06;;;;;;;1.40;1.00;;;;;;;19.12;100.00;101490.34;5049801;28;20180;-74
2022/09/03 09:06:40;;;;;;;3.27;1.10;;;;;;;19.16;100.00;101483.34;5049909;28;20476;-74
2022/09/03 09:09:40;;;;;;;1.00;0.87;;;;;;;19.20;100.00;101492.66;5032026;28;20872;-73
2022/09/03 09:12:20;;;;;;;0.87;0.87;;;;;;;19.34;100.00;101492.38;5050746;28;20461;-73
2022/09/03 09:15:11;;;;;;;1.60;1.27;;;;;;;19.46;100.00;101492.34;5052024;28;20444;-73
2022/09/03 09:17:51;;;;;;;1.60;1.00;;;;;;;19.25;100.00;101440.28;5048961;28;20481;-73
2022/09/03 09:20:35;;;;;;;1.80;0.90;;;;;;;19.51;100.00;101476.94;5049977;28;20448;-75
2022/09/03 09:23:06;;;;;;;2.60;1.10;;;;;;;19.54;100.00;101475.66;5051515;28;20421;-73
2022/09/03 09:25:38;;;;;;;2.10;1.20;;;;;;;19.61;100.00;101487.19;5032151;28;20854;-74
2022/09/03 09:28:16;;;;;;;1.47;0.87;;;;;;;19.59;100.00;101473.03;5044845;28;20478;-73
2022/09/03 09:30:44;;;;;;;1.73;0.80;;;;;;;18.62;100.00;101314.22;5051575;28;20525;-73
2022/09/03 09:33:10;;;;;;;1.00;0.80;;;;;;;19.42;100.00;101429.44;5050074;28;20414;-73
2022/09/03 09:35:35;;;;;;;1.17;0.80;;;;;;;19.79;100.00;101478.06;5050407;28;20449;-73
2022/09/03 09:38:00;;;;;;;2.80;0.90;;;;;;;19.11;100.00;101363.59;5050953;28;20470;-73
2022/09/03 09:40:34;;;;;;;1.50;0.90;;;;;;;19.90;100.00;101470.88;5048004;28;20184;-74
2022/09/03 09:43:05;;;;;;;1.10;0.80;;;;;;;19.41;100.00;101398.72;5049121;28;20662;-73
2022/09/03 09:45:33;;;;;;;1.50;1.07;;;;;;;19.95;100.00;101471.78;5050256;28;20439;-74
2022/09/03 09:47:59;;;;;;;1.17;0.90;;;;;;;20.11;100.00;101463.91;5032287;28;20851;-74
2022/09/03 09:50:24;;;;;;;1.40;0.80;;;;;;;19.88;100.00;101419.41;5049738;28;20434;-73
2022/09/03 09:53:04;;;;;;;3.50;1.10;;;;;;;20.22;100.00;101474.72;5048092;28;20438;-74
2022/09/03 09:55:29;;;;;;;1.27;0.93;;;;;;;20.27;100.00;101474.78;5048475;28;20194;-73
2022/09/03 09:58:08;;;;;;;1.30;1.20;;;;;;;20.11;100.00;101417.59;5032333;28;20446;-74
2022/09/03 10:00:36;;;;;;;1.37;1.10;;;;;;;20.48;100.00;101475.09;5049222;28;20214;-74
2022/09/03 10:03:09;;;;;;;0.90;0.73;;;;;;;20.33;100.00;101445.72;5050214;28;20434;-74
2022/09/03 10:05:38;;;;;;;1.60;1.10;;;;;;;20.59;100.00;101468.75;5049454;28;20418;-73
2022/09/03 10:08:06;;;;;;;1.40;0.83;;;;;;;19.93;100.00;101362.34;5048548;28;20476;-74
2022/09/03 10:10:36;;;;;;;4.80;0.90;;;;;;;20.14;100.00;101360.72;5028867;28;20461;-73
2022/09/03 10:13:18;;;;;;;1.90;0.90;;;;;;;20.80;100.00;101463.56;5049580;28;20438;-73
2022/09/03 10:15:54;;;;;;;6.00;0.80;;;;;;;20.91;100.00;101462.63;5049703;28;20421;-73
2022/09/03 10:18:43;;;;;;;2.90;1.10;;;;;;;21.00;100.00;101469.31;5047701;28;20434;-74
2022/09/03 10:21:41;;;;;;;2.20;0.83;;;;;;;20.98;100.00;101474.19;5048235;28;20442;-73
2022/09/03 10:24:06;;;;;;;1.20;0.90;;;;;;;21.01;100.00;101462.78;5048933;28;20430;-73
2022/09/03 10:26:32;;;;;;;1.10;0.70;;;;;;;20.26;100.00;101323.31;5048367;28;20465;-73
2022/09/03 10:29:04;;;;;;;2.03;0.90;;;;;;;21.06;100.00;101426.56;5049454;28;20626;-73
2022/09/03 10:31:47;;;;;;;2.40;1.23;;;;;;;20.80;100.00;101370.88;5049790;28;20575;-73
2022/09/03 10:34:32;;;;;;;2.20;0.80;;;;;;;21.32;100.00;101455.81;5049949;28;20510;-74
2022/09/03 10:37:15;;;;;;;1.13;0.80;;;;;;;21.35;100.00;101462.63;5049622;28;20437;-74
2022/09/03 10:40:06;;;;;;;1.73;0.90;;;;;;;21.25;100.00;101410.69;5048292;28;20850;-74
2022/09/03 10:42:44;;;;;;;2.30;0.90;;;;;;;21.60;100.00;101446.56;5031382;28;20544;-73
2022/09/03 10:45:48;;;;;;;2.23;0.70;;;;;;;21.66;100.00;101456.44;5048355;28;20426;-73
2022/09/03 10:48:19;;;;;;;0.90;0.80;;;;;;;21.70;100.00;101448.59;5029644;28;20470;-73
2022/09/03 10:51:02;;;;;;;2.13;0.90;;;;;;;21.63;100.00;101445.22;5048742;28;20503;-74
2022/09/03 10:53:34;;;;;;;1.27;0.67;;;;;;;21.66;100.00;101447.44;5047307;28;20434;-74
2022/09/03 10:56:28;;;;;;;1.87;0.70;;;;;;;21.80;100.00;101445.13;5028981;28;20440;-74
2022/09/03 10:59:16;;;;;;;1.67;1.07;;;;;;;21.85;100.00;101445.16;4992396;28;20457;-74
2022/09/03 11:02:06;;;;;;;1.57;0.70;;;;;;;21.85;100.00;101445.16;5048594;28;20793;-74
2022/09/03 11:04:45;;;;;;;1.23;1.13;;;;;;;22.10;100.00;101450.00;5049349;28;20422;-73
2022/09/03 11:07:19;;;;;;;1.10;0.70;;;;;;;22.01;100.00;101451.56;5046740;28;20886;-74
2022/09/03 11:09:56;;;;;;;1.03;0.80;;;;;;;21.95;100.00;101436.22;5049529;28;20413;-74
2022/09/03 11:12:29;;;;;;;2.10;0.83;;;;;;;21.58;100.00;101355.94;5046535;28;20465;-73
2022/09/03 11:15:08;;;;;;;1.47;0.97;;;;;;;22.16;100.00;101437.22;5046192;28;20548;-73
2022/09/03 11:17:41;;;;;;;1.33;1.03;;;;;;;22.30;100.00;101441.16;5048409;28;20449;-73
2022/09/03 11:20:18;;;;;;;0.83;0.77;;;;;;;21.72;100.00;101344.56;5031322;28;20459;-73
2022/09/03 11:22:44;;;;;;;2.00;0.70;;;;;;;22.27;100.00;101430.75;5049444;28;20418;-73
2022/09/03 11:25:14;;;;;;;1.73;0.67;;;;;;;22.46;100.00;101439.38;5048381;28;20477;-74
2022/09/03 11:28:02;;;;;;;2.70;0.93;;;;;;;22.33;100.00;101411.44;5046470;28;20532;-73
2022/09/03 11:30:59;;;;;;;1.80;0.90;;;;;;;22.15;100.00;101375.47;5030504;28;20482;-74
2022/09/03 11:33:27;;;;;;;2.30;0.90;;;;;;;22.45;100.00;101410.38;5048453;28;20449;-74
2022/09/03 11:35:59;;;;;;;1.50;0.70;;;;;;;22.24;100.00;101380.19;5038530;28;20429;-73
2022/09/03 11:38:29;;;;;;;1.07;0.97;;;;;;;22.51;100.00;101425.75;5029468;28;20477;-73
2022/09/03 11:41:34;;;;;;;2.60;0.83;;;;;;;22.46;100.00;101433.91;5028042;28;20530;-73